sensor_id;sensor_type;location;lat;lon;timestamp;P1;durP1;ratioP1;P2;durP2;ratioP2
8622;SDS011;4349;47.552;8.904;2024-03-22T00:01:54;3.93;;;3.73;;
8622;SDS011;4349;47.552;8.904;2024-03-22T00:04:22;4.27;;;3.90;;
8622;SDS011;4349;47.552;8.904;2024-03-22T00:06:48;4.60;;;4.30;;
8622;SDS011;4349;47.552;8.904;2024-03-22T00:09:15;4.43;;;4.23;;
8622;SDS011;4349;47.552;8.904;2024-03-22T00:11:41;4.40;;;4.10;;
8622;SDS011;4349;47.552;8.904;2024-03-22T00:14:08;4.00;;;3.80;;
8622;SDS011;4349;47.552;8.904;2024-03-22T00:16:34;4.13;;;3.83;;
8622;SDS011;4349;47.552;8.904;2024-03-22T00:19:01;4.37;;;4.07;;
8622;SDS011;4349;47.552;8.904;2024-03-22T00:21:28;4.50;;;4.20;;
8622;SDS011;4349;47.552;8.904;2024-03-22T00:23:55;3.90;;;3.60;;
8622;SDS011;4349;47.552;8.904;2024-03-22T00:26:21;4.33;;;4.13;;
8622;SDS011;4349;47.552;8.904;2024-03-22T00:28:48;4.23;;;3.97;;
8622;SDS011;4349;47.552;8.904;2024-03-22T00:31:14;4.27;;;4.07;;
8622;SDS011;4349;47.552;8.904;2024-03-22T00:33:41;4.07;;;3.87;;
8622;SDS011;4349;47.552;8.904;2024-03-22T00:36:07;5.37;;;4.20;;
8622;SDS011;4349;47.552;8.904;2024-03-22T00:38:35;4.73;;;4.50;;
8622;SDS011;4349;47.552;8.904;2024-03-22T00:41:01;4.23;;;3.93;;
8622;SDS011;4349;47.552;8.904;2024-03-22T00:43:28;4.63;;;4.37;;
8622;SDS011;4349;47.552;8.904;2024-03-22T00:45:53;4.90;;;4.60;;
8622;SDS011;4349;47.552;8.904;2024-03-22T00:48:20;5.07;;;4.87;;
8622;SDS011;4349;47.552;8.904;2024-03-22T00:50:46;5.30;;;4.80;;
8622;SDS011;4349;47.552;8.904;2024-03-22T00:53:12;4.63;;;4.40;;
8622;SDS011;4349;47.552;8.904;2024-03-22T00:55:40;5.13;;;4.63;;
8622;SDS011;4349;47.552;8.904;2024-03-22T00:58:06;4.80;;;4.50;;
8622;SDS011;4349;47.552;8.904;2024-03-22T01:00:32;4.93;;;4.67;;
8622;SDS011;4349;47.552;8.904;2024-03-22T01:02:58;4.30;;;4.07;;
8622;SDS011;4349;47.552;8.904;2024-03-22T01:05:25;4.30;;;4.10;;
8622;SDS011;4349;47.552;8.904;2024-03-22T01:07:51;4.50;;;4.20;;
8622;SDS011;4349;47.552;8.904;2024-03-22T01:10:18;4.17;;;3.93;;
8622;SDS011;4349;47.552;8.904;2024-03-22T01:12:45;4.37;;;4.17;;
8622;SDS011;4349;47.552;8.904;2024-03-22T01:15:12;4.30;;;4.00;;
8622;SDS011;4349;47.552;8.904;2024-03-22T01:17:37;3.83;;;3.67;;
8622;SDS011;4349;47.552;8.904;2024-03-22T01:20:04;4.77;;;4.37;;
8622;SDS011;4349;47.552;8.904;2024-03-22T01:22:30;3.60;;;3.40;;
8622;SDS011;4349;47.552;8.904;2024-03-22T01:24:57;4.20;;;3.90;;
8622;SDS011;4349;47.552;8.904;2024-03-22T01:27:22;4.30;;;4.10;;
8622;SDS011;4349;47.552;8.904;2024-03-22T01:29:50;4.43;;;4.13;;
8622;SDS011;4349;47.552;8.904;2024-03-22T01:32:16;4.47;;;4.27;;
8622;SDS011;4349;47.552;8.904;2024-03-22T01:34:43;4.03;;;3.87;;
8622;SDS011;4349;47.552;8.904;2024-03-22T01:37:08;4.17;;;3.87;;
8622;SDS011;4349;47.552;8.904;2024-03-22T01:39:35;3.53;;;3.40;;
8622;SDS011;4349;47.552;8.904;2024-03-22T01:42:01;3.47;;;3.37;;
8622;SDS011;4349;47.552;8.904;2024-03-22T01:44:28;3.50;;;3.40;;
8622;SDS011;4349;47.552;8.904;2024-03-22T01:46:55;3.90;;;3.60;;
8622;SDS011;4349;47.552;8.904;2024-03-22T01:49:22;3.70;;;3.50;;
8622;SDS011;4349;47.552;8.904;2024-03-22T01:51:49;3.30;;;3.20;;
8622;SDS011;4349;47.552;8.904;2024-03-22T01:54:16;3.50;;;3.30;;
8622;SDS011;4349;47.552;8.904;2024-03-22T01:56:42;3.80;;;3.60;;
8622;SDS011;4349;47.552;8.904;2024-03-22T01:59:08;4.20;;;4.00;;
8622;SDS011;4349;47.552;8.904;2024-03-22T02:01:34;3.70;;;3.50;;
8622;SDS011;4349;47.552;8.904;2024-03-22T02:04:03;3.93;;;3.80;;
8622;SDS011;4349;47.552;8.904;2024-03-22T02:06:28;3.67;;;3.47;;
8622;SDS011;4349;47.552;8.904;2024-03-22T02:08:55;3.90;;;3.70;;
8622;SDS011;4349;47.552;8.904;2024-03-22T02:11:21;4.30;;;4.00;;
8622;SDS011;4349;47.552;8.904;2024-03-22T02:13:48;4.13;;;3.93;;
8622;SDS011;4349;47.552;8.904;2024-03-22T02:16:13;4.23;;;3.83;;
8622;SDS011;4349;47.552;8.904;2024-03-22T02:18:40;3.77;;;3.57;;
8622;SDS011;4349;47.552;8.904;2024-03-22T02:21:07;4.20;;;4.00;;
8622;SDS011;4349;47.552;8.904;2024-03-22T02:23:36;4.30;;;4.07;;
8622;SDS011;4349;47.552;8.904;2024-03-22T02:26:02;4.20;;;4.00;;
8622;SDS011;4349;47.552;8.904;2024-03-22T02:28:29;4.30;;;4.10;;
8622;SDS011;4349;47.552;8.904;2024-03-22T02:30:55;4.10;;;3.80;;
8622;SDS011;4349;47.552;8.904;2024-03-22T02:33:22;4.53;;;4.23;;
8622;SDS011;4349;47.552;8.904;2024-03-22T02:35:48;4.77;;;4.40;;
8622;SDS011;4349;47.552;8.904;2024-03-22T02:38:15;4.80;;;4.50;;
8622;SDS011;4349;47.552;8.904;2024-03-22T02:40:42;4.17;;;3.97;;
8622;SDS011;4349;47.552;8.904;2024-03-22T02:43:09;4.13;;;3.93;;
8622;SDS011;4349;47.552;8.904;2024-03-22T02:45:34;4.20;;;3.97;;
8622;SDS011;4349;47.552;8.904;2024-03-22T02:48:01;4.23;;;4.00;;
8622;SDS011;4349;47.552;8.904;2024-03-22T02:50:27;3.97;;;3.77;;
8622;SDS011;4349;47.552;8.904;2024-03-22T02:52:53;4.30;;;3.93;;
8622;SDS011;4349;47.552;8.904;2024-03-22T02:55:19;4.53;;;4.23;;
8622;SDS011;4349;47.552;8.904;2024-03-22T02:57:48;3.87;;;3.70;;
8622;SDS011;4349;47.552;8.904;2024-03-22T03:00:14;3.90;;;3.70;;
8622;SDS011;4349;47.552;8.904;2024-03-22T03:02:41;4.60;;;4.17;;
8622;SDS011;4349;47.552;8.904;2024-03-22T03:05:07;4.10;;;3.90;;
8622;SDS011;4349;47.552;8.904;2024-03-22T03:07:33;4.20;;;4.00;;
8622;SDS011;4349;47.552;8.904;2024-03-22T03:09:59;4.03;;;3.77;;
8622;SDS011;4349;47.552;8.904;2024-03-22T03:12:26;4.30;;;4.00;;
8622;SDS011;4349;47.552;8.904;2024-03-22T03:14:53;4.13;;;3.83;;
8622;SDS011;4349;47.552;8.904;2024-03-22T03:17:20;4.50;;;4.20;;
8622;SDS011;4349;47.552;8.904;2024-03-22T03:19:45;3.30;;;3.20;;
8622;SDS011;4349;47.552;8.904;2024-03-22T03:22:12;4.07;;;3.83;;
8622;SDS011;4349;47.552;8.904;2024-03-22T03:24:37;4.03;;;3.63;;
8622;SDS011;4349;47.552;8.904;2024-03-22T03:27:04;3.60;;;3.50;;
8622;SDS011;4349;47.552;8.904;2024-03-22T03:29:30;4.00;;;3.70;;
8622;SDS011;4349;47.552;8.904;2024-03-22T03:31:58;3.30;;;3.10;;
8622;SDS011;4349;47.552;8.904;2024-03-22T03:34:23;3.93;;;3.57;;
8622;SDS011;4349;47.552;8.904;2024-03-22T03:36:50;3.27;;;3.17;;
8622;SDS011;4349;47.552;8.904;2024-03-22T03:39:16;4.13;;;3.43;;
8622;SDS011;4349;47.552;8.904;2024-03-22T03:41:42;3.10;;;3.00;;
8622;SDS011;4349;47.552;8.904;2024-03-22T03:44:08;3.33;;;3.20;;
8622;SDS011;4349;47.552;8.904;2024-03-22T03:46:35;3.83;;;3.63;;
8622;SDS011;4349;47.552;8.904;2024-03-22T03:49:02;3.50;;;3.40;;
8622;SDS011;4349;47.552;8.904;2024-03-22T03:51:28;3.57;;;3.27;;
8622;SDS011;4349;47.552;8.904;2024-03-22T03:53:54;3.70;;;3.50;;
8622;SDS011;4349;47.552;8.904;2024-03-22T03:56:20;3.73;;;3.60;;
8622;SDS011;4349;47.552;8.904;2024-03-22T03:58:46;3.40;;;3.20;;
8622;SDS011;4349;47.552;8.904;2024-03-22T04:01:13;3.63;;;3.53;;
8622;SDS011;4349;47.552;8.904;2024-03-22T04:03:39;3.77;;;3.47;;
8622;SDS011;4349;47.552;8.904;2024-03-22T04:06:07;3.90;;;3.40;;
8622;SDS011;4349;47.552;8.904;2024-03-22T04:08:32;3.07;;;2.97;;
8622;SDS011;4349;47.552;8.904;2024-03-22T04:11:00;3.20;;;3.10;;
8622;SDS011;4349;47.552;8.904;2024-03-22T04:13:26;3.30;;;3.20;;
8622;SDS011;4349;47.552;8.904;2024-03-22T04:15:53;3.33;;;3.23;;
8622;SDS011;4349;47.552;8.904;2024-03-22T04:18:18;3.63;;;3.40;;
8622;SDS011;4349;47.552;8.904;2024-03-22T04:20:53;3.73;;;3.53;;
8622;SDS011;4349;47.552;8.904;2024-03-22T04:23:21;4.30;;;3.90;;
8622;SDS011;4349;47.552;8.904;2024-03-22T04:25:51;3.30;;;3.10;;
8622;SDS011;4349;47.552;8.904;2024-03-22T04:28:17;3.80;;;3.50;;
8622;SDS011;4349;47.552;8.904;2024-03-22T04:30:44;4.23;;;3.93;;
8622;SDS011;4349;47.552;8.904;2024-03-22T04:33:19;4.30;;;4.10;;
8622;SDS011;4349;47.552;8.904;2024-03-22T04:35:45;4.80;;;4.50;;
8622;SDS011;4349;47.552;8.904;2024-03-22T04:38:11;5.37;;;4.87;;
8622;SDS011;4349;47.552;8.904;2024-03-22T04:40:39;4.50;;;4.30;;
8622;SDS011;4349;47.552;8.904;2024-03-22T04:43:05;6.30;;;4.07;;
8622;SDS011;4349;47.552;8.904;2024-03-22T04:45:32;5.70;;;5.20;;
8622;SDS011;4349;47.552;8.904;2024-03-22T04:47:58;4.87;;;4.57;;
8622;SDS011;4349;47.552;8.904;2024-03-22T04:50:24;4.40;;;4.20;;
8622;SDS011;4349;47.552;8.904;2024-03-22T04:52:50;5.00;;;4.60;;
8622;SDS011;4349;47.552;8.904;2024-03-22T04:55:17;4.37;;;3.97;;
8622;SDS011;4349;47.552;8.904;2024-03-22T04:57:44;4.03;;;3.83;;
8622;SDS011;4349;47.552;8.904;2024-03-22T05:00:11;3.87;;;3.67;;
8622;SDS011;4349;47.552;8.904;2024-03-22T05:02:36;3.70;;;3.50;;
8622;SDS011;4349;47.552;8.904;2024-03-22T05:05:03;3.50;;;3.30;;
8622;SDS011;4349;47.552;8.904;2024-03-22T05:07:29;3.83;;;3.57;;
8622;SDS011;4349;47.552;8.904;2024-03-22T05:09:56;4.30;;;3.87;;
8622;SDS011;4349;47.552;8.904;2024-03-22T05:12:22;4.00;;;3.80;;
8622;SDS011;4349;47.552;8.904;2024-03-22T05:14:49;3.70;;;3.50;;
8622;SDS011;4349;47.552;8.904;2024-03-22T05:17:15;3.87;;;3.57;;
8622;SDS011;4349;47.552;8.904;2024-03-22T05:19:42;3.23;;;3.13;;
8622;SDS011;4349;47.552;8.904;2024-03-22T05:22:07;3.60;;;3.30;;
8622;SDS011;4349;47.552;8.904;2024-03-22T05:24:34;3.77;;;3.60;;
8622;SDS011;4349;47.552;8.904;2024-03-22T05:27:00;4.17;;;3.80;;
8622;SDS011;4349;47.552;8.904;2024-03-22T05:29:26;4.20;;;4.00;;
8622;SDS011;4349;47.552;8.904;2024-03-22T05:31:53;4.00;;;3.63;;
8622;SDS011;4349;47.552;8.904;2024-03-22T05:34:20;3.90;;;3.70;;
8622;SDS011;4349;47.552;8.904;2024-03-22T05:36:46;3.97;;;3.67;;
8622;SDS011;4349;47.552;8.904;2024-03-22T05:39:12;3.70;;;3.53;;
8622;SDS011;4349;47.552;8.904;2024-03-22T05:41:38;3.80;;;3.60;;
8622;SDS011;4349;47.552;8.904;2024-03-22T05:44:05;3.87;;;3.57;;
8622;SDS011;4349;47.552;8.904;2024-03-22T05:46:31;3.60;;;3.50;;
8622;SDS011;4349;47.552;8.904;2024-03-22T05:48:59;3.67;;;3.53;;
8622;SDS011;4349;47.552;8.904;2024-03-22T05:51:24;3.93;;;3.70;;
8622;SDS011;4349;47.552;8.904;2024-03-22T05:53:51;3.43;;;3.33;;
8622;SDS011;4349;47.552;8.904;2024-03-22T05:56:16;3.37;;;3.27;;
8622;SDS011;4349;47.552;8.904;2024-03-22T05:58:43;4.10;;;3.93;;
8622;SDS011;4349;47.552;8.904;2024-03-22T06:01:09;4.50;;;4.30;;
8622;SDS011;4349;47.552;8.904;2024-03-22T06:03:35;4.40;;;4.10;;
8622;SDS011;4349;47.552;8.904;2024-03-22T06:06:03;3.80;;;3.60;;
8622;SDS011;4349;47.552;8.904;2024-03-22T06:08:29;3.80;;;3.67;;
8622;SDS011;4349;47.552;8.904;2024-03-22T06:10:57;4.20;;;3.87;;
8622;SDS011;4349;47.552;8.904;2024-03-22T06:13:22;4.00;;;3.63;;
8622;SDS011;4349;47.552;8.904;2024-03-22T06:15:49;4.30;;;3.97;;
8622;SDS011;4349;47.552;8.904;2024-03-22T06:18:15;4.20;;;4.00;;
8622;SDS011;4349;47.552;8.904;2024-03-22T06:20:42;3.73;;;3.60;;
8622;SDS011;4349;47.552;8.904;2024-03-22T06:23:09;4.40;;;4.20;;
8622;SDS011;4349;47.552;8.904;2024-03-22T06:25:36;4.40;;;3.83;;
8622;SDS011;4349;47.552;8.904;2024-03-22T06:28:02;3.50;;;3.40;;
8622;SDS011;4349;47.552;8.904;2024-03-22T06:30:28;3.90;;;3.60;;
8622;SDS011;4349;47.552;8.904;2024-03-22T06:32:54;3.90;;;3.60;;
8622;SDS011;4349;47.552;8.904;2024-03-22T06:35:21;3.70;;;3.40;;
8622;SDS011;4349;47.552;8.904;2024-03-22T06:37:46;3.73;;;3.53;;
8622;SDS011;4349;47.552;8.904;2024-03-22T06:40:16;3.60;;;3.47;;
8622;SDS011;4349;47.552;8.904;2024-03-22T06:42:42;3.73;;;3.60;;
8622;SDS011;4349;47.552;8.904;2024-03-22T06:45:08;3.50;;;3.30;;
8622;SDS011;4349;47.552;8.904;2024-03-22T06:47:34;4.00;;;3.80;;
8622;SDS011;4349;47.552;8.904;2024-03-22T06:50:01;3.63;;;3.43;;
8622;SDS011;4349;47.552;8.904;2024-03-22T06:52:26;3.90;;;3.70;;
8622;SDS011;4349;47.552;8.904;2024-03-22T06:54:53;3.97;;;3.77;;
8622;SDS011;4349;47.552;8.904;2024-03-22T06:57:20;4.10;;;3.80;;
8622;SDS011;4349;47.552;8.904;2024-03-22T06:59:47;4.10;;;3.80;;
8622;SDS011;4349;47.552;8.904;2024-03-22T07:02:12;3.70;;;3.50;;
8622;SDS011;4349;47.552;8.904;2024-03-22T07:04:39;3.63;;;3.43;;
8622;SDS011;4349;47.552;8.904;2024-03-22T07:07:05;4.33;;;4.03;;
8622;SDS011;4349;47.552;8.904;2024-03-22T07:09:32;4.80;;;4.37;;
8622;SDS011;4349;47.552;8.904;2024-03-22T07:11:59;4.87;;;4.47;;
8622;SDS011;4349;47.552;8.904;2024-03-22T07:14:26;4.60;;;4.20;;
8622;SDS011;4349;47.552;8.904;2024-03-22T07:16:52;3.70;;;3.50;;
8622;SDS011;4349;47.552;8.904;2024-03-22T07:19:19;4.13;;;3.93;;
8622;SDS011;4349;47.552;8.904;2024-03-22T07:21:46;4.43;;;4.20;;
8622;SDS011;4349;47.552;8.904;2024-03-22T07:24:11;4.10;;;3.90;;
8622;SDS011;4349;47.552;8.904;2024-03-22T07:26:38;3.87;;;3.57;;
8622;SDS011;4349;47.552;8.904;2024-03-22T07:29:04;3.90;;;3.70;;
8622;SDS011;4349;47.552;8.904;2024-03-22T07:31:31;3.93;;;3.73;;
8622;SDS011;4349;47.552;8.904;2024-03-22T07:33:57;4.10;;;3.90;;
8622;SDS011;4349;47.552;8.904;2024-03-22T07:36:24;4.30;;;4.10;;
8622;SDS011;4349;47.552;8.904;2024-03-22T07:38:51;4.20;;;3.90;;
8622;SDS011;4349;47.552;8.904;2024-03-22T07:41:18;4.00;;;3.70;;
8622;SDS011;4349;47.552;8.904;2024-03-22T07:43:44;5.20;;;4.33;;
8622;SDS011;4349;47.552;8.904;2024-03-22T07:46:10;4.07;;;3.77;;
8622;SDS011;4349;47.552;8.904;2024-03-22T07:48:38;4.00;;;3.80;;
8622;SDS011;4349;47.552;8.904;2024-03-22T07:51:05;6.40;;;4.37;;
8622;SDS011;4349;47.552;8.904;2024-03-22T07:53:30;4.13;;;3.77;;
8622;SDS011;4349;47.552;8.904;2024-03-22T07:55:57;3.97;;;3.77;;
8622;SDS011;4349;47.552;8.904;2024-03-22T07:58:23;4.17;;;3.90;;
8622;SDS011;4349;47.552;8.904;2024-03-22T08:00:49;3.73;;;3.50;;
8622;SDS011;4349;47.552;8.904;2024-03-22T08:03:15;3.43;;;3.33;;
8622;SDS011;4349;47.552;8.904;2024-03-22T08:05:43;4.50;;;4.20;;
8622;SDS011;4349;47.552;8.904;2024-03-22T08:08:09;4.20;;;4.00;;
8622;SDS011;4349;47.552;8.904;2024-03-22T08:10:35;4.73;;;4.43;;
8622;SDS011;4349;47.552;8.904;2024-03-22T08:13:01;4.83;;;4.40;;
8622;SDS011;4349;47.552;8.904;2024-03-22T08:15:28;4.77;;;4.17;;
8622;SDS011;4349;47.552;8.904;2024-03-22T08:17:54;5.00;;;4.70;;
8622;SDS011;4349;47.552;8.904;2024-03-22T08:20:22;4.83;;;4.53;;
8622;SDS011;4349;47.552;8.904;2024-03-22T08:22:50;4.90;;;4.60;;
8622;SDS011;4349;47.552;8.904;2024-03-22T08:25:16;5.17;;;4.77;;
8622;SDS011;4349;47.552;8.904;2024-03-22T08:27:43;4.90;;;4.50;;
8622;SDS011;4349;47.552;8.904;2024-03-22T08:30:10;5.63;;;5.23;;
8622;SDS011;4349;47.552;8.904;2024-03-22T08:32:37;6.37;;;5.83;;
8622;SDS011;4349;47.552;8.904;2024-03-22T08:35:04;5.70;;;5.30;;
8622;SDS011;4349;47.552;8.904;2024-03-22T08:37:29;5.77;;;5.47;;
8622;SDS011;4349;47.552;8.904;2024-03-22T08:39:57;5.10;;;4.80;;
8622;SDS011;4349;47.552;8.904;2024-03-22T08:42:26;5.17;;;4.80;;
8622;SDS011;4349;47.552;8.904;2024-03-22T08:44:53;5.13;;;4.83;;
8622;SDS011;4349;47.552;8.904;2024-03-22T08:50:37;5.30;;;4.90;;
8622;SDS011;4349;47.552;8.904;2024-03-22T08:53:02;4.70;;;4.40;;
8622;SDS011;4349;47.552;8.904;2024-03-22T08:55:31;5.73;;;5.30;;
8622;SDS011;4349;47.552;8.904;2024-03-22T08:57:56;5.17;;;4.77;;
8622;SDS011;4349;47.552;8.904;2024-03-22T09:00:23;4.53;;;4.23;;
8622;SDS011;4349;47.552;8.904;2024-03-22T09:02:49;5.13;;;4.70;;
8622;SDS011;4349;47.552;8.904;2024-03-22T09:05:16;5.23;;;4.80;;
8622;SDS011;4349;47.552;8.904;2024-03-22T09:07:42;5.07;;;4.77;;
8622;SDS011;4349;47.552;8.904;2024-03-22T09:10:09;4.57;;;4.23;;
8622;SDS011;4349;47.552;8.904;2024-03-22T09:12:36;5.30;;;4.97;;
8622;SDS011;4349;47.552;8.904;2024-03-22T09:15:03;5.53;;;5.03;;
8622;SDS011;4349;47.552;8.904;2024-03-22T09:17:28;6.27;;;4.33;;
8622;SDS011;4349;47.552;8.904;2024-03-22T09:19:55;4.93;;;4.63;;
8622;SDS011;4349;47.552;8.904;2024-03-22T09:22:21;5.63;;;4.97;;
8622;SDS011;4349;47.552;8.904;2024-03-22T09:24:48;5.17;;;4.87;;
8622;SDS011;4349;47.552;8.904;2024-03-22T09:27:14;4.73;;;4.50;;
8622;SDS011;4349;47.552;8.904;2024-03-22T09:29:42;4.37;;;4.17;;
8622;SDS011;4349;47.552;8.904;2024-03-22T09:32:09;5.43;;;5.03;;
8622;SDS011;4349;47.552;8.904;2024-03-22T09:34:36;4.60;;;4.20;;
8622;SDS011;4349;47.552;8.904;2024-03-22T09:37:01;4.90;;;4.60;;
8622;SDS011;4349;47.552;8.904;2024-03-22T09:39:28;4.60;;;4.20;;
8622;SDS011;4349;47.552;8.904;2024-03-22T09:41:56;5.23;;;4.70;;
8622;SDS011;4349;47.552;8.904;2024-03-22T09:44:23;4.00;;;3.80;;
8622;SDS011;4349;47.552;8.904;2024-03-22T09:46:50;4.17;;;3.97;;
8622;SDS011;4349;47.552;8.904;2024-03-22T09:49:17;4.70;;;4.30;;
8622;SDS011;4349;47.552;8.904;2024-03-22T09:51:43;4.57;;;4.17;;
8622;SDS011;4349;47.552;8.904;2024-03-22T09:54:10;4.80;;;4.40;;
8622;SDS011;4349;47.552;8.904;2024-03-22T09:56:36;4.40;;;4.00;;
8622;SDS011;4349;47.552;8.904;2024-03-22T09:59:04;4.20;;;4.00;;
8622;SDS011;4349;47.552;8.904;2024-03-22T10:01:29;5.10;;;4.07;;
8622;SDS011;4349;47.552;8.904;2024-03-22T10:03:58;4.07;;;3.80;;
8622;SDS011;4349;47.552;8.904;2024-03-22T10:06:24;3.50;;;3.30;;
8622;SDS011;4349;47.552;8.904;2024-03-22T10:08:50;3.90;;;3.63;;
8622;SDS011;4349;47.552;8.904;2024-03-22T10:11:16;5.23;;;4.23;;
8622;SDS011;4349;47.552;8.904;2024-03-22T10:13:43;4.93;;;3.73;;
8622;SDS011;4349;47.552;8.904;2024-03-22T10:16:11;3.63;;;3.27;;
8622;SDS011;4349;47.552;8.904;2024-03-22T10:18:38;3.80;;;3.60;;
8622;SDS011;4349;47.552;8.904;2024-03-22T10:21:05;3.97;;;3.77;;
8622;SDS011;4349;47.552;8.904;2024-03-22T10:23:32;4.37;;;3.60;;
8622;SDS011;4349;47.552;8.904;2024-03-22T10:25:58;3.80;;;3.60;;
8622;SDS011;4349;47.552;8.904;2024-03-22T10:28:24;3.73;;;3.47;;
8622;SDS011;4349;47.552;8.904;2024-03-22T10:30:50;4.73;;;3.80;;
8622;SDS011;4349;47.552;8.904;2024-03-22T10:33:18;3.20;;;3.00;;
8622;SDS011;4349;47.552;8.904;2024-03-22T10:35:44;2.80;;;2.70;;
8622;SDS011;4349;47.552;8.904;2024-03-22T10:38:13;3.63;;;2.33;;
8622;SDS011;4349;47.552;8.904;2024-03-22T10:40:40;1.90;;;1.90;;
8622;SDS011;4349;47.552;8.904;2024-03-22T10:43:10;2.23;;;2.13;;
8622;SDS011;4349;47.552;8.904;2024-03-22T10:45:36;2.40;;;2.30;;
8622;SDS011;4349;47.552;8.904;2024-03-22T10:48:05;2.10;;;2.00;;
8622;SDS011;4349;47.552;8.904;2024-03-22T10:50:33;2.20;;;2.10;;
8622;SDS011;4349;47.552;8.904;2024-03-22T10:53:01;1.90;;;1.90;;
8622;SDS011;4349;47.552;8.904;2024-03-22T10:55:30;2.10;;;2.00;;
8622;SDS011;4349;47.552;8.904;2024-03-22T10:57:58;1.70;;;1.70;;
8622;SDS011;4349;47.552;8.904;2024-03-22T11:00:27;1.97;;;1.87;;
8622;SDS011;4349;47.552;8.904;2024-03-22T11:02:54;1.85;;;1.73;;
8622;SDS011;4349;47.552;8.904;2024-03-22T11:05:20;4.03;;;2.10;;
8622;SDS011;4349;47.552;8.904;2024-03-22T11:07:47;2.50;;;1.60;;
8622;SDS011;4349;47.552;8.904;2024-03-22T11:10:13;1.90;;;1.80;;
8622;SDS011;4349;47.552;8.904;2024-03-22T11:12:41;1.97;;;1.87;;
8622;SDS011;4349;47.552;8.904;2024-03-22T11:15:07;1.97;;;1.90;;
8622;SDS011;4349;47.552;8.904;2024-03-22T11:17:36;2.43;;;1.90;;
8622;SDS011;4349;47.552;8.904;2024-03-22T11:20:02;1.90;;;1.80;;
8622;SDS011;4349;47.552;8.904;2024-03-22T11:22:29;2.57;;;2.03;;
8622;SDS011;4349;47.552;8.904;2024-03-22T11:24:54;1.70;;;1.67;;
8622;SDS011;4349;47.552;8.904;2024-03-22T11:27:21;1.87;;;1.77;;
8622;SDS011;4349;47.552;8.904;2024-03-22T11:29:48;2.23;;;1.80;;
8622;SDS011;4349;47.552;8.904;2024-03-22T11:32:16;1.87;;;1.80;;
8622;SDS011;4349;47.552;8.904;2024-03-22T11:34:42;2.97;;;1.70;;
8622;SDS011;4349;47.552;8.904;2024-03-22T11:37:09;1.80;;;1.80;;
8622;SDS011;4349;47.552;8.904;2024-03-22T11:39:36;1.60;;;1.50;;
8622;SDS011;4349;47.552;8.904;2024-03-22T11:42:03;2.20;;;1.60;;
8622;SDS011;4349;47.552;8.904;2024-03-22T11:44:30;1.40;;;1.40;;
8622;SDS011;4349;47.552;8.904;2024-03-22T11:46:59;1.77;;;1.77;;
8622;SDS011;4349;47.552;8.904;2024-03-22T11:49:24;1.57;;;1.57;;
8622;SDS011;4349;47.552;8.904;2024-03-22T11:51:51;1.70;;;1.60;;
8622;SDS011;4349;47.552;8.904;2024-03-22T11:54:18;1.93;;;1.60;;
8622;SDS011;4349;47.552;8.904;2024-03-22T11:56:45;2.97;;;1.60;;
8622;SDS011;4349;47.552;8.904;2024-03-22T11:59:11;1.53;;;1.40;;
8622;SDS011;4349;47.552;8.904;2024-03-22T12:01:37;2.57;;;1.70;;
8622;SDS011;4349;47.552;8.904;2024-03-22T12:04:05;1.87;;;1.60;;
8622;SDS011;4349;47.552;8.904;2024-03-22T12:06:33;1.83;;;1.50;;
8622;SDS011;4349;47.552;8.904;2024-03-22T12:08:59;1.80;;;1.67;;
8622;SDS011;4349;47.552;8.904;2024-03-22T12:11:26;2.40;;;1.30;;
8622;SDS011;4349;47.552;8.904;2024-03-22T12:13:51;1.53;;;1.43;;
8622;SDS011;4349;47.552;8.904;2024-03-22T12:16:18;1.50;;;1.40;;
8622;SDS011;4349;47.552;8.904;2024-03-22T12:18:44;1.30;;;1.30;;
8622;SDS011;4349;47.552;8.904;2024-03-22T12:21:12;1.20;;;1.20;;
8622;SDS011;4349;47.552;8.904;2024-03-22T12:23:37;1.47;;;1.37;;
8622;SDS011;4349;47.552;8.904;2024-03-22T12:26:04;1.30;;;1.30;;
8622;SDS011;4349;47.552;8.904;2024-03-22T12:28:30;1.73;;;1.30;;
8622;SDS011;4349;47.552;8.904;2024-03-22T12:30:56;1.50;;;1.40;;
8622;SDS011;4349;47.552;8.904;2024-03-22T12:33:23;1.47;;;1.47;;
8622;SDS011;4349;47.552;8.904;2024-03-22T12:35:50;1.83;;;1.60;;
8622;SDS011;4349;47.552;8.904;2024-03-22T12:38:17;1.30;;;1.30;;
8622;SDS011;4349;47.552;8.904;2024-03-22T12:40:43;1.27;;;1.27;;
8622;SDS011;4349;47.552;8.904;2024-03-22T12:43:09;1.30;;;1.30;;
8622;SDS011;4349;47.552;8.904;2024-03-22T12:45:36;1.73;;;1.60;;
8622;SDS011;4349;47.552;8.904;2024-03-22T12:48:02;1.60;;;1.50;;
8622;SDS011;4349;47.552;8.904;2024-03-22T12:50:29;1.13;;;1.10;;
8622;SDS011;4349;47.552;8.904;2024-03-22T12:52:55;1.57;;;1.47;;
8622;SDS011;4349;47.552;8.904;2024-03-22T12:55:24;1.37;;;1.27;;
8622;SDS011;4349;47.552;8.904;2024-03-22T12:57:51;1.50;;;1.50;;
8622;SDS011;4349;47.552;8.904;2024-03-22T13:00:17;1.20;;;1.20;;
8622;SDS011;4349;47.552;8.904;2024-03-22T13:02:44;1.30;;;1.20;;
8622;SDS011;4349;47.552;8.904;2024-03-22T13:05:11;1.47;;;1.37;;
8622;SDS011;4349;47.552;8.904;2024-03-22T13:07:37;1.77;;;1.67;;
8622;SDS011;4349;47.552;8.904;2024-03-22T13:10:04;1.40;;;1.40;;
8622;SDS011;4349;47.552;8.904;2024-03-22T13:12:32;1.30;;;1.30;;
8622;SDS011;4349;47.552;8.904;2024-03-22T13:14:59;1.10;;;1.10;;
8622;SDS011;4349;47.552;8.904;2024-03-22T13:17:25;1.33;;;1.27;;
8622;SDS011;4349;47.552;8.904;2024-03-22T13:19:52;1.30;;;1.30;;
8622;SDS011;4349;47.552;8.904;2024-03-22T13:22:17;1.43;;;1.43;;
8622;SDS011;4349;47.552;8.904;2024-03-22T13:24:44;1.53;;;1.43;;
8622;SDS011;4349;47.552;8.904;2024-03-22T13:27:10;1.27;;;1.27;;
8622;SDS011;4349;47.552;8.904;2024-03-22T13:29:39;1.30;;;1.30;;
8622;SDS011;4349;47.552;8.904;2024-03-22T13:32:05;1.17;;;1.10;;
8622;SDS011;4349;47.552;8.904;2024-03-22T13:34:33;1.90;;;1.40;;
8622;SDS011;4349;47.552;8.904;2024-03-22T13:36:58;1.20;;;1.20;;
8622;SDS011;4349;47.552;8.904;2024-03-22T13:39:25;1.57;;;1.43;;
8622;SDS011;4349;47.552;8.904;2024-03-22T13:41:50;1.77;;;1.67;;
8622;SDS011;4349;47.552;8.904;2024-03-22T13:44:17;1.30;;;1.30;;
8622;SDS011;4349;47.552;8.904;2024-03-22T13:46:44;1.20;;;1.20;;
8622;SDS011;4349;47.552;8.904;2024-03-22T13:49:13;2.10;;;1.50;;
8622;SDS011;4349;47.552;8.904;2024-03-22T13:51:39;1.30;;;1.20;;
8622;SDS011;4349;47.552;8.904;2024-03-22T13:54:06;1.47;;;1.40;;
8622;SDS011;4349;47.552;8.904;2024-03-22T13:56:32;1.57;;;1.50;;
8622;SDS011;4349;47.552;8.904;2024-03-22T13:58:58;1.77;;;1.63;;
8622;SDS011;4349;47.552;8.904;2024-03-22T14:01:24;1.30;;;1.27;;
8622;SDS011;4349;47.552;8.904;2024-03-22T14:03:52;1.40;;;1.40;;
8622;SDS011;4349;47.552;8.904;2024-03-22T14:06:18;1.40;;;1.40;;
8622;SDS011;4349;47.552;8.904;2024-03-22T14:08:44;1.77;;;1.67;;
8622;SDS011;4349;47.552;8.904;2024-03-22T14:11:10;2.23;;;1.60;;
8622;SDS011;4349;47.552;8.904;2024-03-22T14:13:37;2.13;;;1.37;;
8622;SDS011;4349;47.552;8.904;2024-03-22T14:16:03;1.60;;;1.50;;
8622;SDS011;4349;47.552;8.904;2024-03-22T14:18:32;1.50;;;1.40;;
8622;SDS011;4349;47.552;8.904;2024-03-22T14:20:59;1.40;;;1.40;;
8622;SDS011;4349;47.552;8.904;2024-03-22T14:23:26;1.30;;;1.27;;
8622;SDS011;4349;47.552;8.904;2024-03-22T14:25:51;1.53;;;1.43;;
8622;SDS011;4349;47.552;8.904;2024-03-22T14:28:18;1.40;;;1.40;;
8622;SDS011;4349;47.552;8.904;2024-03-22T14:30:44;1.43;;;1.33;;
8622;SDS011;4349;47.552;8.904;2024-03-22T14:33:10;1.40;;;1.40;;
8622;SDS011;4349;47.552;8.904;2024-03-22T14:35:36;1.50;;;1.50;;
8622;SDS011;4349;47.552;8.904;2024-03-22T14:38:05;2.03;;;1.50;;
8622;SDS011;4349;47.552;8.904;2024-03-22T14:40:30;1.30;;;1.30;;
8622;SDS011;4349;47.552;8.904;2024-03-22T14:43:02;1.40;;;1.40;;
8622;SDS011;4349;47.552;8.904;2024-03-22T14:45:27;1.23;;;1.23;;
8622;SDS011;4349;47.552;8.904;2024-03-22T14:47:54;1.65;;;1.55;;
8622;SDS011;4349;47.552;8.904;2024-03-22T14:50:20;1.30;;;1.30;;
8622;SDS011;4349;47.552;8.904;2024-03-22T14:52:48;1.15;;;1.10;;
8622;SDS011;4349;47.552;8.904;2024-03-22T14:55:15;2.28;;;1.40;;
8622;SDS011;4349;47.552;8.904;2024-03-22T14:57:42;1.58;;;1.48;;
8622;SDS011;4349;47.552;8.904;2024-03-22T15:00:08;1.20;;;1.20;;
8622;SDS011;4349;47.552;8.904;2024-03-22T15:02:36;1.83;;;1.20;;
8622;SDS011;4349;47.552;8.904;2024-03-22T15:05:02;1.20;;;1.20;;
8622;SDS011;4349;47.552;8.904;2024-03-22T15:07:29;1.15;;;1.15;;
8622;SDS011;4349;47.552;8.904;2024-03-22T15:09:55;1.23;;;1.23;;
8622;SDS011;4349;47.552;8.904;2024-03-22T15:12:23;1.48;;;1.25;;
8622;SDS011;4349;47.552;8.904;2024-03-22T15:14:51;1.10;;;1.10;;